CST,Max TemperatureF,Mean TemperatureF,Min TemperatureF,Max Dew PointF,MeanDew PointF,Min DewpointF,Max Humidity, Mean Humidity, Min Humidity, Max Sea Level PressureIn, Mean Sea Level PressureIn, Min Sea Level PressureIn, Max VisibilityMiles, Mean VisibilityMiles, Min VisibilityMiles, Max Wind SpeedMPH, Mean Wind SpeedMPH, Max Gust SpeedMPH,PrecipitationIn, CloudCover, Events, WindDirDegrees
2012-11-1,69,52,35,46,39,30,100,73,30,30.10,30.03,29.99,10,10,7,7,1,,0.00,0,,297
2012-11-2,80,60,41,59,50,39,100,80,39,30.03,29.99,29.96,10,9,0,5,1,,0.00,0,Fog,273
2012-11-3,82,65,48,61,53,46,100,76,32,30.10,30.04,29.99,10,8,0,12,2,18,0.00,0,Fog,256
2012-11-4,64,52,41,55,49,39,100,80,49,30.14,30.10,30.04,10,10,7,8,2,,0.02,2,Rain-Thunderstorm,314
2012-11-5,59,46,33,48,41,34,100,85,45,30.12,30.05,29.95,10,8,0,8,1,,0.17,4,Fog-Rain,135
2012-11-6,55,44,33,46,42,34,100,88,58,30.06,30.02,29.98,10,8,0,6,1,,0.01,5,Fog,307
2012-11-7,59,46,33,45,37,32,100,80,39,30.17,30.06,29.99,10,8,0,13,2,23,0.00,3,Fog,312
2012-11-8,60,45,30,43,36,30,100,82,39,30.29,30.22,30.18,10,8,2,5,0,,0.00,0,,1
2012-11-9,68,50,32,45,40,32,100,76,37,30.30,30.22,30.17,10,9,3,8,2,,0.00,0,,155
2012-11-10,71,56,41,54,48,39,100,76,46,30.30,30.23,30.16,10,10,5,10,4,16,0.00,0,,150
2012-11-11,73,62,50,57,53,48,94,71,53,30.23,30.16,30.09,10,10,10,20,9,25,0.00,3,Thunderstorm,150
2012-11-12,64,48,33,59,44,32,100,83,58,30.44,30.30,30.08,10,9,4,13,7,18,1.01,5,Rain-Thunderstorm,321
2012-11-13,53,40,28,32,30,27,100,71,38,30.50,30.42,30.35,10,10,10,13,3,16,0.00,0,,360
2012-11-14,55,44,32,41,34,30,100,79,51,30.37,30.32,30.26,10,10,7,8,2,,0.00,0,,339
2012-11-15,60,46,32,43,37,32,100,81,39,30.33,30.28,30.24,10,9,4,8,1,,0.00,0,,351
2012-11-16,62,47,32,37,33,30,100,65,30,30.36,30.32,30.28,10,10,4,8,2,,0.00,0,,357
2012-11-17,62,47,32,39,34,30,100,74,34,30.43,30.36,30.33,10,10,10,8,1,,0.00,0,,52
2012-11-18,62,46,30,41,35,30,100,77,36,30.41,30.35,30.29,10,9,4,8,1,,0.00,0,,84
2012-11-19,64,48,32,45,39,32,100,80,40,30.33,30.26,30.20,10,9,5,6,0,,0.00,0,,104
2012-11-20,69,56,42,50,45,41,100,78,35,30.23,30.16,30.10,10,9,7,5,1,,0.00,3,Rain,265
2012-11-21,69,53,37,52,45,37,100,82,43,30.22,30.18,30.13,10,9,2,8,1,,0.00,0,,356
2012-11-22,71,52,33,50,41,32,100,77,33,30.25,30.19,30.15,10,8,1,7,1,,0.00,0,,203
2012-11-23,62,50,37,54,44,34,100,81,58,30.27,30.21,30.16,10,9,4,8,2,,0.00,3,,310
2012-11-24,50,39,28,34,27,21,93,68,32,30.36,30.27,30.20,10,10,7,8,2,,0.00,0,,340
2012-11-25,28,26,23,27,25,23,100,95,93,30.19,30.17,30.17,10,10,10,0,0,,0.00,0,,-1
2012-11-26,,,,,,,,,,,,,,,,,,,0.00,,,-1
2012-11-27,,,,,,,,,,,,,,,,,,,0.00,,,-1
2012-11-28,53,40,28,36,31,25,100,73,35,30.43,30.39,30.37,10,10,7,7,2,,0.00,0,,7
2012-11-29,60,42,24,37,32,23,100,76,34,30.42,30.34,30.27,10,9,5,7,1,,0.00,0,,143
2012-11-30,64,48,32,48,40,32,100,86,42,30.34,30.27,30.21,10,6,0,8,1,,0.00,1,Fog,171